Time;durP1;ratioP1;P1;durP2;ratioP2;P2;SDS_P1;SDS_P2;PMS_P1;PMS_P2;Temp;Humidity;BMP_temperature;BMP_pressure;BME280_temperature;BME280_humidity;BME280_pressure;Samples;Min_cycle;Max_cycle;Signal;HPM_P1;HPM_P2
2021/06/26 00:00:15;;;;;;;18.27;14.25;;;15.00;99.90;;;;;;5062065;28;20040;-63
2021/06/26 00:02:41;;;;;;;22.48;16.08;;;15.00;99.90;;;;;;5057370;28;20034;-61
2021/06/26 00:05:09;;;;;;;21.40;15.60;;;14.90;99.90;;;;;;5065775;28;20119;-63
2021/06/26 00:07:36;;;;;;;19.00;15.82;;;14.80;99.90;;;;;;5059628;28;20148;-64
2021/06/26 00:10:03;;;;;;;22.88;15.13;;;14.70;99.90;;;;;;5053307;28;20040;-64
2021/06/26 00:12:29;;;;;;;21.25;16.08;;;14.70;99.90;;;;;;5064842;28;20025;-60
2021/06/26 00:14:54;;;;;;;21.15;16.30;;;14.60;99.90;;;;;;5055548;28;20107;-64
2021/06/26 00:17:20;;;;;;;18.90;14.50;;;14.60;99.90;;;;;;5052364;28;20057;-63
2021/06/26 00:19:45;;;;;;;20.67;15.10;;;14.50;99.90;;;;;;5050462;28;20044;-64
2021/06/26 00:22:11;;;;;;;23.58;16.25;;;14.50;99.90;;;;;;5057510;28;20083;-63
2021/06/26 00:24:36;;;;;;;17.85;15.27;;;14.40;99.90;;;;;;5054456;28;20025;-63
2021/06/26 00:27:02;;;;;;;23.73;16.58;;;14.40;99.90;;;;;;5057346;28;20651;-63
2021/06/26 00:29:28;;;;;;;24.05;15.13;;;14.40;99.90;;;;;;5050715;28;20028;-64
2021/06/26 00:31:53;;;;;;;19.55;15.50;;;14.40;99.90;;;;;;5049529;28;20029;-63
2021/06/26 00:34:19;;;;;;;26.60;17.67;;;14.40;99.90;;;;;;5052078;28;20485;-65
2021/06/26 00:36:45;;;;;;;21.33;15.55;;;14.30;99.90;;;;;;5052767;28;20020;-62
2021/06/26 00:39:10;;;;;;;19.00;15.25;;;14.30;99.90;;;;;;5058163;28;20034;-64
2021/06/26 00:41:36;;;;;;;20.95;16.48;;;14.40;99.90;;;;;;5062655;28;20072;-63
2021/06/26 00:44:06;;;;;;;21.48;16.33;;;14.40;99.90;;;;;;5060141;28;20040;-63
2021/06/26 00:46:32;;;;;;;18.50;15.50;;;14.30;99.90;;;;;;5056320;28;20033;-61
2021/06/26 00:48:57;;;;;;;20.40;16.52;;;14.30;99.90;;;;;;5058583;28;20486;-64
2021/06/26 00:51:23;;;;;;;19.25;15.45;;;14.30;99.90;;;;;;5054356;28;20074;-62
2021/06/26 00:53:48;;;;;;;22.52;15.70;;;14.30;99.90;;;;;;5057529;28;20066;-65
2021/06/26 00:56:14;;;;;;;21.88;15.20;;;14.30;99.90;;;;;;5056885;28;20039;-64
2021/06/26 00:58:40;;;;;;;23.88;16.38;;;14.20;99.90;;;;;;5065842;28;20032;-63
2021/06/26 01:01:05;;;;;;;24.65;16.05;;;14.30;99.90;;;;;;5061241;28;20037;-63
2021/06/26 01:03:31;;;;;;;18.15;15.27;;;14.20;99.90;;;;;;5061275;28;20486;-63
2021/06/26 01:05:57;;;;;;;19.85;15.95;;;14.20;99.90;;;;;;5055343;28;20047;-61
2021/06/26 01:08:25;;;;;;;22.50;16.60;;;14.30;99.90;;;;;;5054783;28;20124;-64
2021/06/26 01:10:50;;;;;;;23.80;16.05;;;14.20;99.90;;;;;;5062214;28;20032;-63
2021/06/26 01:13:16;;;;;;;28.90;16.38;;;14.20;99.90;;;;;;5061085;28;20028;-64
2021/06/26 01:15:42;;;;;;;24.95;15.68;;;14.20;99.90;;;;;;5061617;28;20028;-63
2021/06/26 01:18:07;;;;;;;23.17;16.20;;;14.20;99.90;;;;;;5065697;28;20651;-63
2021/06/26 01:20:33;;;;;;;20.95;15.25;;;14.10;99.90;;;;;;5060349;28;20024;-63
2021/06/26 01:22:59;;;;;;;26.02;15.75;;;14.10;99.90;;;;;;5064841;28;20090;-63
2021/06/26 01:25:26;;;;;;;25.63;16.42;;;14.00;99.90;;;;;;5060155;28;20043;-63
2021/06/26 01:27:53;;;;;;;24.27;16.60;;;13.90;99.90;;;;;;5055108;28;20481;-62
2021/06/26 01:30:33;;;;;;;23.90;17.02;;;13.80;99.90;;;;;;5061571;28;20067;-63
2021/06/26 01:32:59;;;;;;;22.98;15.75;;;13.80;99.90;;;;;;5056133;28;20406;-63
2021/06/26 01:35:25;;;;;;;23.65;17.58;;;13.70;99.90;;;;;;5062027;28;20039;-63
2021/06/26 01:37:51;;;;;;;25.48;17.02;;;13.70;99.90;;;;;;5055608;28;20017;-64
2021/06/26 01:40:23;;;;;;;21.77;16.88;;;13.70;99.90;;;;;;5062142;28;20036;-63
2021/06/26 01:42:50;;;;;;;21.83;16.88;;;13.70;99.90;;;;;;5062016;28;20393;-64
2021/06/26 01:45:17;;;;;;;26.67;15.63;;;13.70;99.90;;;;;;5063597;28;20029;-64
2021/06/26 01:47:56;;;;;;;23.10;17.45;;;13.70;99.90;;;;;;5062029;28;20523;-63
2021/06/26 01:50:23;;;;;;;26.73;16.20;;;13.60;99.90;;;;;;5054594;28;20040;-62
2021/06/26 01:52:49;;;;;;;26.42;16.20;;;13.60;99.90;;;;;;5051763;28;20068;-63
2021/06/26 01:55:16;;;;;;;20.77;17.55;;;13.60;99.90;;;;;;5061135;28;20044;-63
2021/06/26 01:57:44;;;;;;;23.00;17.55;;;13.50;99.90;;;;;;5055335;28;20035;-61
2021/06/26 02:00:10;;;;;;;20.45;16.92;;;13.50;99.90;;;;;;5054321;28;20402;-63
2021/06/26 02:02:36;;;;;;;25.50;16.58;;;13.40;99.90;;;;;;5054722;28;20580;-62
2021/06/26 02:05:04;;;;;;;20.42;16.42;;;13.40;99.90;;;;;;5062208;28;20082;-64
2021/06/26 02:07:29;;;;;;;23.38;17.27;;;13.30;99.90;;;;;;5061392;28;20044;-63
2021/06/26 02:09:55;;;;;;;22.80;17.60;;;13.30;99.90;;;;;;5054887;28;20044;-56
2021/06/26 02:12:21;;;;;;;23.88;17.45;;;13.30;99.90;;;;;;5062477;28;20029;-62
2021/06/26 02:14:46;;;;;;;24.35;17.70;;;13.20;99.90;;;;;;5065456;28;20028;-63
2021/06/26 02:17:12;;;;;;;23.20;17.48;;;13.20;99.90;;;;;;5068473;28;20021;-63
2021/06/26 02:19:37;;;;;;;23.17;18.02;;;13.20;99.90;;;;;;5056145;28;20036;-61
2021/06/26 02:22:03;;;;;;;23.67;17.45;;;13.10;99.90;;;;;;5051441;28;20036;-64
2021/06/26 02:24:28;;;;;;;23.00;17.10;;;13.10;99.90;;;;;;5057591;28;20497;-63
2021/06/26 02:26:54;;;;;;;26.20;18.50;;;13.00;99.90;;;;;;5062567;28;20517;-63
2021/06/26 02:29:20;;;;;;;23.48;18.02;;;13.00;99.90;;;;;;5060924;28;20044;-62
2021/06/26 02:31:46;;;;;;;22.98;17.92;;;13.00;99.90;;;;;;5058671;28;20028;-62
2021/06/26 02:34:13;;;;;;;22.83;17.40;;;13.00;99.90;;;;;;5053911;28;20017;-62
2021/06/26 02:36:40;;;;;;;28.38;18.73;;;12.90;99.90;;;;;;5065314;28;20158;-64
2021/06/26 02:39:06;;;;;;;28.92;19.23;;;12.90;99.90;;;;;;5059537;28;20052;-61
2021/06/26 02:41:31;;;;;;;22.17;18.25;;;12.80;99.90;;;;;;5060744;28;20470;-64
2021/06/26 02:43:57;;;;;;;24.75;18.70;;;12.80;99.90;;;;;;5056109;28;20428;-63
2021/06/26 02:46:22;;;;;;;25.77;18.10;;;12.80;99.90;;;;;;5061109;28;20051;-63
2021/06/26 02:48:48;;;;;;;27.40;19.15;;;12.80;99.90;;;;;;5063533;28;20478;-63
2021/06/26 02:51:13;;;;;;;29.05;19.63;;;12.80;99.90;;;;;;5060004;28;20444;-61
2021/06/26 02:53:39;;;;;;;27.98;19.45;;;12.80;99.90;;;;;;5063579;28;20563;-62
2021/06/26 02:56:05;;;;;;;26.73;20.05;;;12.70;99.90;;;;;;5061407;28;20583;-62
2021/06/26 02:58:31;;;;;;;23.98;18.75;;;12.70;99.90;;;;;;5062738;28;20041;-62
2021/06/26 03:00:56;;;;;;;31.20;18.73;;;12.70;99.90;;;;;;5057102;28;20060;-64
2021/06/26 03:03:22;;;;;;;23.33;18.60;;;12.70;99.90;;;;;;5056071;28;20052;-64
2021/06/26 03:05:47;;;;;;;25.08;18.88;;;12.70;99.90;;;;;;5053132;28;20036;-63
2021/06/26 03:08:13;;;;;;;25.27;18.25;;;12.70;99.90;;;;;;5063703;28;20024;-62
2021/06/26 03:10:39;;;;;;;27.88;19.75;;;12.60;99.90;;;;;;5057753;28;20532;-63
2021/06/26 03:13:04;;;;;;;30.35;20.38;;;12.60;99.90;;;;;;5052748;28;20037;-61
2021/06/26 03:15:32;;;;;;;23.58;19.58;;;12.70;99.90;;;;;;5056083;28;20020;-61
2021/06/26 03:17:57;;;;;;;24.85;18.17;;;12.60;99.90;;;;;;5054501;28;20031;-63
2021/06/26 03:20:23;;;;;;;26.50;19.50;;;12.60;99.90;;;;;;5061454;28;20032;-64
2021/06/26 03:22:48;;;;;;;26.98;18.35;;;12.60;99.90;;;;;;5056905;28;20497;-61
2021/06/26 03:25:14;;;;;;;27.88;18.65;;;12.70;99.90;;;;;;5056207;28;20033;-63
2021/06/26 03:27:41;;;;;;;23.67;17.55;;;12.70;99.90;;;;;;5062408;28;20034;-63
2021/06/26 03:30:07;;;;;;;24.88;18.88;;;12.70;99.90;;;;;;5061606;28;20040;-63
2021/06/26 03:32:33;;;;;;;24.02;17.20;;;12.80;99.90;;;;;;5054226;28;20470;-61
2021/06/26 03:34:59;;;;;;;22.65;16.48;;;12.80;99.90;;;;;;5055308;28;20052;-63
2021/06/26 03:37:25;;;;;;;20.85;16.13;;;12.80;99.90;;;;;;5067505;28;20057;-63
2021/06/26 03:39:51;;;;;;;18.85;15.70;;;12.90;99.90;;;;;;5051673;28;20147;-62
2021/06/26 03:42:16;;;;;;;21.63;16.17;;;12.90;99.90;;;;;;5058427;28;20040;-63
2021/06/26 03:44:42;;;;;;;21.50;15.80;;;13.00;99.90;;;;;;5061056;28;20028;-60
2021/06/26 03:47:08;;;;;;;20.73;15.68;;;13.00;99.90;;;;;;5055320;28;20043;-63
2021/06/26 03:49:38;;;;;;;22.08;15.38;;;13.10;99.90;;;;;;5061382;28;20402;-63
2021/06/26 03:52:05;;;;;;;18.88;15.10;;;13.10;99.90;;;;;;5056126;28;20433;-64
2021/06/26 03:54:31;;;;;;;20.38;15.32;;;13.20;99.90;;;;;;5063346;28;20032;-61
2021/06/26 03:56:56;;;;;;;18.33;14.98;;;13.30;99.90;;;;;;5053583;28;20021;-64
2021/06/26 03:59:22;;;;;;;20.60;15.27;;;13.30;99.90;;;;;;5058793;28;20067;-63
2021/06/26 04:01:47;;;;;;;22.92;15.57;;;13.40;99.90;;;;;;5057637;28;20414;-63
2021/06/26 04:04:13;;;;;;;18.60;15.18;;;13.50;99.90;;;;;;5050607;28;20039;-61
2021/06/26 04:06:39;;;;;;;19.63;14.95;;;13.50;99.90;;;;;;5048082;28;20509;-63
2021/06/26 04:09:05;;;;;;;19.90;14.65;;;13.50;99.90;;;;;;5042959;28;20040;-63
2021/06/26 04:11:30;;;;;;;16.55;13.75;;;13.60;99.90;;;;;;5040127;28;20108;-62
2021/06/26 04:13:56;;;;;;;19.50;13.48;;;13.70;99.90;;;;;;5047124;28;20040;-63
2021/06/26 04:16:21;;;;;;;20.65;13.32;;;13.80;99.90;;;;;;5047173;28;20028;-61
2021/06/26 04:18:47;;;;;;;15.98;14.15;;;13.80;99.90;;;;;;5047629;28;20033;-63
2021/06/26 04:21:12;;;;;;;21.45;13.75;;;13.80;99.90;;;;;;5044256;28;20101;-60
2021/06/26 04:23:38;;;;;;;16.50;13.95;;;13.80;99.90;;;;;;5047378;28;20025;-61
2021/06/26 04:26:04;;;;;;;18.02;13.80;;;13.80;99.90;;;;;;5045946;28;20029;-63
2021/06/26 04:28:30;;;;;;;23.70;13.95;;;13.90;99.90;;;;;;5040200;28;20025;-64
2021/06/26 04:30:55;;;;;;;18.80;13.50;;;13.90;99.90;;;;;;5049064;28;20022;-63
2021/06/26 04:33:21;;;;;;;19.20;13.18;;;14.10;99.90;;;;;;5046297;28;20021;-63
2021/06/26 04:35:47;;;;;;;22.40;13.55;;;14.10;99.90;;;;;;5043860;28;20025;-63
2021/06/26 04:38:12;;;;;;;20.75;13.02;;;14.40;99.90;;;;;;5048348;28;20017;-62
2021/06/26 04:40:38;;;;;;;17.40;11.90;;;14.70;99.90;;;;;;5045417;28;20485;-63
2021/06/26 04:43:04;;;;;;;19.40;11.63;;;15.50;99.90;;;;;;5046633;28;20147;-64
2021/06/26 04:45:30;;;;;;;16.00;12.02;;;16.40;99.90;;;;;;5042461;28;20445;-64
2021/06/26 04:48:00;;;;;;;17.35;12.30;;;17.20;99.90;;;;;;5055617;28;20028;-64
2021/06/26 04:50:26;;;;;;;13.75;10.63;;;18.10;99.90;;;;;;5047232;28;20025;-64
2021/06/26 04:52:52;;;;;;;14.00;10.32;;;18.80;99.90;;;;;;5042887;28;20025;-63
2021/06/26 04:55:17;;;;;;;12.60;10.07;;;18.80;99.90;;;;;;5046685;28;20573;-64
2021/06/26 04:57:44;;;;;;;12.52;10.52;;;19.40;99.90;;;;;;5050407;28;20027;-64
2021/06/26 05:00:12;;;;;;;15.90;10.25;;;19.80;99.60;;;;;;5047785;28;20618;-62
2021/06/26 05:02:37;;;;;;;12.40;10.45;;;20.70;97.60;;;;;;5062445;28;20107;-66
2021/06/26 05:05:03;;;;;;;11.55;9.55;;;20.70;97.10;;;;;;5047085;28;20116;-64
2021/06/26 05:07:29;;;;;;;9.50;8.48;;;21.30;96.60;;;;;;5043289;28;20112;-62
2021/06/26 05:09:55;;;;;;;14.45;8.32;;;21.90;95.30;;;;;;5046102;28;20127;-63
2021/06/26 05:12:20;;;;;;;11.20;8.75;;;22.30;93.20;;;;;;5046857;28;20033;-63
2021/06/26 05:14:46;;;;;;;8.35;7.35;;;23.20;91.90;;;;;;5040677;28;20033;-62
2021/06/26 05:17:11;;;;;;;10.23;8.73;;;23.10;92.20;;;;;;5045786;28;20017;-59
2021/06/26 05:19:37;;;;;;;15.30;8.10;;;23.10;91.60;;;;;;5045855;28;20479;-64
2021/06/26 05:22:03;;;;;;;13.13;8.48;;;23.90;90.10;;;;;;5046214;28;20048;-63
2021/06/26 05:24:28;;;;;;;10.63;8.48;;;23.40;90.00;;;;;;5046294;28;20052;-63
2021/06/26 05:26:54;;;;;;;11.27;7.78;;;23.30;90.10;;;;;;5047389;28;20057;-63
2021/06/26 05:29:19;;;;;;;9.18;7.68;;;23.10;90.40;;;;;;5043805;28;20029;-63
2021/06/26 05:31:45;;;;;;;10.00;8.05;;;22.60;90.80;;;;;;5049845;28;20105;-63
2021/06/26 05:34:10;;;;;;;9.82;8.50;;;22.60;91.40;;;;;;5047787;28;20123;-63
2021/06/26 05:36:36;;;;;;;12.85;8.75;;;22.60;91.40;;;;;;5051269;28;20470;-62
2021/06/26 05:39:04;;;;;;;12.45;8.80;;;22.20;92.00;;;;;;5050643;28;20449;-61
2021/06/26 05:41:29;;;;;;;10.90;8.73;;;22.20;93.00;;;;;;5054635;28;20040;-63
2021/06/26 05:43:55;;;;;;;10.52;8.95;;;22.50;92.00;;;;;;5051474;28;20029;-62
2021/06/26 05:46:20;;;;;;;12.00;8.45;;;22.80;93.30;;;;;;5048432;28;20087;-63
2021/06/26 05:48:46;;;;;;;10.35;8.98;;;22.80;91.30;;;;;;5049942;28;20029;-63
2021/06/26 05:51:17;;;;;;;8.82;7.78;;;22.60;92.40;;;;;;5049370;28;20081;-62
2021/06/26 05:53:43;;;;;;;8.82;7.85;;;22.40;92.60;;;;;;5050975;28;20033;-63
2021/06/26 05:56:09;;;;;;;11.60;8.95;;;22.90;92.40;;;;;;5042719;28;20036;-63
2021/06/26 05:58:37;;;;;;;13.70;9.60;;;23.10;91.70;;;;;;5049738;28;20568;-62
2021/06/26 06:01:06;;;;;;;11.68;7.70;;;24.20;90.30;;;;;;5046892;28;20030;-63
2021/06/26 06:03:32;;;;;;;11.20;8.90;;;25.60;88.30;;;;;;5050380;28;20029;-62
2021/06/26 06:05:57;;;;;;;10.75;8.45;;;25.60;84.80;;;;;;5049263;28;20040;-64
2021/06/26 06:08:23;;;;;;;10.60;9.30;;;26.60;82.10;;;;;;5049706;28;20033;-64
2021/06/26 06:10:49;;;;;;;9.18;8.23;;;27.40;78.90;;;;;;5046881;28;20028;-63
2021/06/26 06:13:17;;;;;;;13.23;8.90;;;27.70;77.20;;;;;;5049531;28;20025;-64
2021/06/26 06:15:43;;;;;;;10.32;8.52;;;27.30;76.30;;;;;;5045726;28;20124;-62
2021/06/26 06:18:09;;;;;;;11.68;9.38;;;27.80;73.80;;;;;;5048659;28;20021;-64
2021/06/26 06:20:35;;;;;;;11.23;9.73;;;27.60;74.70;;;;;;5043967;28;20026;-63
2021/06/26 06:23:01;;;;;;;9.88;8.73;;;27.80;73.90;;;;;;5050249;28;20052;-64
2021/06/26 06:25:27;;;;;;;12.60;9.10;;;27.30;74.30;;;;;;5044086;28;20122;-64
2021/06/26 06:27:53;;;;;;;13.68;9.00;;;27.70;73.00;;;;;;5046367;28;20032;-63
2021/06/26 06:30:19;;;;;;;10.10;7.60;;;28.30;71.30;;;;;;5045376;28;20032;-63
2021/06/26 06:32:44;;;;;;;12.35;9.35;;;30.10;69.90;;;;;;5042429;28;20033;-64
2021/06/26 06:35:10;;;;;;;11.90;9.13;;;30.20;66.20;;;;;;5056156;28;20150;-63
2021/06/26 06:37:37;;;;;;;11.93;8.93;;;29.60;66.60;;;;;;5052097;28;20159;-63
2021/06/26 06:40:05;;;;;;;13.30;8.60;;;30.20;66.20;;;;;;5049501;28;20029;-62
2021/06/26 06:42:32;;;;;;;13.23;8.60;;;30.80;64.10;;;;;;5048597;28;20041;-63
2021/06/26 06:44:57;;;;;;;11.48;10.30;;;31.10;63.10;;;;;;5046444;28;20083;-64
2021/06/26 06:47:23;;;;;;;12.10;9.95;;;29.80;63.80;;;;;;5043993;28;20029;-64
2021/06/26 06:49:49;;;;;;;16.45;10.18;;;29.90;66.50;;;;;;5046889;28;20075;-64
2021/06/26 06:52:14;;;;;;;11.55;9.75;;;29.90;64.30;;;;;;5046834;28;20547;-63
2021/06/26 06:54:40;;;;;;;14.35;8.90;;;30.10;64.20;;;;;;5048134;28;20033;-64
2021/06/26 06:57:06;;;;;;;10.45;9.38;;;31.50;63.90;;;;;;5049268;28;20473;-63
2021/06/26 06:59:31;;;;;;;14.38;9.65;;;31.40;62.00;;;;;;5057232;28;20410;-63
2021/06/26 07:01:58;;;;;;;10.10;8.98;;;32.20;60.30;;;;;;4980187;28;20041;-64
2021/06/26 07:04:24;;;;;;;13.18;10.32;;;31.50;60.80;;;;;;5065225;28;20033;-64
2021/06/26 07:06:50;;;;;;;11.93;10.70;;;31.40;60.30;;;;;;5050972;28;20021;-64
2021/06/26 07:09:15;;;;;;;12.52;9.25;;;31.30;59.40;;;;;;5054324;28;20044;-63
2021/06/26 07:11:41;;;;;;;17.10;11.00;;;31.70;60.50;;;;;;5061653;28;20052;-63
2021/06/26 07:14:07;;;;;;;14.57;10.25;;;31.30;59.40;;;;;;5061426;28;20021;-64
2021/06/26 07:16:33;;;;;;;14.55;9.82;;;31.30;61.00;;;;;;5063671;28;20033;-64
2021/06/26 07:18:58;;;;;;;13.60;11.18;;;30.90;59.40;;;;;;5056779;28;20672;-63
2021/06/26 07:21:24;;;;;;;20.60;12.10;;;31.90;60.10;;;;;;5055531;28;20041;-61
2021/06/26 07:23:49;;;;;;;12.15;10.57;;;31.60;58.90;;;;;;5054266;28;20044;-63
2021/06/26 07:26:16;;;;;;;16.52;11.35;;;32.40;58.30;;;;;;5052800;28;20029;-63
2021/06/26 07:28:41;;;;;;;17.20;11.70;;;32.60;56.90;;;;;;5054845;28;20486;-63
2021/06/26 07:31:07;;;;;;;14.77;11.75;;;32.80;57.20;;;;;;5056699;28;20044;-64
2021/06/26 07:33:32;;;;;;;12.43;11.23;;;33.30;56.20;;;;;;5054797;28;20550;-64
2021/06/26 07:35:58;;;;;;;11.98;10.73;;;32.00;57.30;;;;;;5058738;28;20579;-64
2021/06/26 07:38:24;;;;;;;14.30;11.73;;;32.80;56.60;;;;;;5053707;28;20052;-62
2021/06/26 07:40:50;;;;;;;12.60;11.25;;;32.30;57.60;;;;;;5054120;28;20033;-64
2021/06/26 07:43:16;;;;;;;15.57;12.45;;;32.70;57.60;;;;;;5056280;28;20036;-64
2021/06/26 07:45:41;;;;;;;18.85;12.38;;;33.40;55.80;;;;;;5059426;28;20029;-64
2021/06/26 07:48:07;;;;;;;16.38;12.10;;;32.00;55.70;;;;;;5052380;28;20493;-64
2021/06/26 07:50:33;;;;;;;15.60;13.55;;;31.20;58.00;;;;;;5056967;28;20533;-64
2021/06/26 07:52:59;;;;;;;18.02;12.68;;;31.70;56.70;;;;;;5049929;28;20060;-64
2021/06/26 07:55:24;;;;;;;14.82;12.68;;;32.70;55.60;;;;;;5061269;28;20056;-66
2021/06/26 07:57:50;;;;;;;18.90;13.35;;;32.70;55.40;;;;;;5057895;28;20081;-64
2021/06/26 08:00:16;;;;;;;19.50;13.25;;;32.80;55.90;;;;;;5045662;28;20047;-64
2021/06/26 08:02:42;;;;;;;16.98;12.90;;;33.20;54.10;;;;;;5057616;28;20064;-64
2021/06/26 08:05:08;;;;;;;18.67;12.98;;;33.30;53.90;;;;;;5056102;28;20060;-64
2021/06/26 08:07:33;;;;;;;19.00;13.13;;;33.00;55.30;;;;;;5062091;28;20024;-64
2021/06/26 08:09:59;;;;;;;18.00;13.70;;;33.50;53.80;;;;;;5053147;28;20524;-65
2021/06/26 08:12:24;;;;;;;17.65;14.00;;;33.80;52.30;;;;;;5057573;28;20029;-64
2021/06/26 08:14:50;;;;;;;15.52;12.60;;;33.10;52.60;;;;;;5052298;28;20539;-65
2021/06/26 08:17:16;;;;;;;15.15;12.18;;;33.60;52.20;;;;;;5056001;28;20059;-63
2021/06/26 08:19:41;;;;;;;18.77;13.30;;;33.70;53.70;;;;;;5056970;28;20036;-65
2021/06/26 08:22:07;;;;;;;14.73;11.77;;;32.50;53.50;;;;;;5055570;28;20618;-64
2021/06/26 08:24:33;;;;;;;14.27;12.98;;;33.90;52.80;;;;;;5054969;28;20037;-63
2021/06/26 08:27:00;;;;;;;12.43;11.10;;;33.50;53.10;;;;;;5053724;28;20116;-63
2021/06/26 08:29:27;;;;;;;14.70;11.88;;;33.70;52.50;;;;;;5053168;28;20031;-64
2021/06/26 08:31:53;;;;;;;15.85;11.60;;;34.00;51.30;;;;;;5053525;28;20036;-64
2021/06/26 08:34:19;;;;;;;15.05;12.27;;;33.80;52.80;;;;;;5059228;28;20112;-64
2021/06/26 08:36:44;;;;;;;13.40;11.80;;;34.40;52.80;;;;;;5061458;28;20125;-64
2021/06/26 08:39:10;;;;;;;13.77;12.07;;;34.90;49.90;;;;;;5058096;28;20032;-64
2021/06/26 08:41:43;;;;;;;13.30;11.63;;;34.90;51.00;;;;;;5053025;28;20021;-65
2021/06/26 08:44:12;;;;;;;14.10;11.88;;;34.90;51.40;;;;;;5055855;28;20483;-65
2021/06/26 08:46:43;;;;;;;15.70;12.43;;;34.30;50.70;;;;;;5058967;28;20040;-64
2021/06/26 08:49:09;;;;;;;15.75;11.65;;;34.60;49.50;;;;;;5051129;28;20029;-64
2021/06/26 08:51:35;;;;;;;14.82;13.15;;;34.30;50.30;;;;;;5055532;28;20608;-64
2021/06/26 08:54:01;;;;;;;16.35;12.90;;;33.30;50.00;;;;;;5054824;28;20021;-61
2021/06/26 08:56:27;;;;;;;13.43;12.13;;;33.20;50.70;;;;;;5051354;28;20052;-64
2021/06/26 08:58:52;;;;;;;15.02;11.57;;;32.80;51.90;;;;;;5057925;28;20035;-65
2021/06/26 09:01:18;;;;;;;17.50;12.63;;;32.50;51.60;;;;;;5044541;28;20056;-64
2021/06/26 09:03:43;;;;;;;13.80;12.32;;;31.80;51.60;;;;;;5063181;28;20032;-63
2021/06/26 09:06:09;;;;;;;14.88;10.55;;;32.60;53.10;;;;;;5056085;28;20025;-64
2021/06/26 09:08:34;;;;;;;16.38;11.82;;;33.80;51.40;;;;;;5057951;28;20552;-64
2021/06/26 09:11:00;;;;;;;12.38;10.77;;;33.90;50.00;;;;;;5057289;28;20033;-64
2021/06/26 09:13:28;;;;;;;13.85;10.90;;;34.40;49.20;;;;;;5061616;28;20031;-63
2021/06/26 09:16:09;;;;;;;10.52;9.45;;;33.50;49.00;;;;;;5057971;28;20078;-63
2021/06/26 09:18:43;;;;;;;14.40;10.65;;;33.20;51.30;;;;;;5062354;28;20051;-62
2021/06/26 09:21:36;;;;;;;11.82;8.98;;;34.20;48.60;;;;;;5062039;28;20657;-64
2021/06/26 09:24:08;;;;;;;15.15;8.38;;;33.50;48.70;;;;;;5057355;28;20100;-62
2021/06/26 09:26:35;;;;;;;9.23;8.32;;;33.50;49.10;;;;;;5061790;28;20044;-63
2021/06/26 09:29:27;;;;;;;9.45;8.25;;;32.80;49.10;;;;;;5065457;28;20048;-63
2021/06/26 09:31:54;;;;;;;12.15;8.25;;;33.20;49.00;;;;;;5057336;28;20116;-64
2021/06/26 09:34:36;;;;;;;8.07;5.78;;;33.50;46.90;;;;;;5060656;28;20498;-63
2021/06/26 09:37:07;;;;;;;7.55;5.72;;;33.70;47.60;;;;;;5058016;28;20477;-64
2021/06/26 09:39:40;;;;;;;6.18;5.57;;;33.70;46.40;;;;;;5060571;28;20159;-63
2021/06/26 09:42:18;;;;;;;6.90;5.72;;;34.20;47.30;;;;;;5059315;28;20036;-63
2021/06/26 09:44:53;;;;;;;6.88;4.82;;;33.20;46.40;;;;;;5060016;28;20028;-63
2021/06/26 09:47:29;;;;;;;7.65;4.43;;;32.90;46.60;;;;;;5061386;28;20058;-63
2021/06/26 09:50:21;;;;;;;7.25;4.90;;;33.50;46.60;;;;;;5059729;28;20044;-63
2021/06/26 09:53:00;;;;;;;7.75;5.55;;;32.70;46.90;;;;;;5056705;28;20028;-63
2021/06/26 09:55:36;;;;;;;7.43;5.50;;;31.70;46.70;;;;;;5061231;28;20402;-64
2021/06/26 09:58:12;;;;;;;4.97;3.95;;;31.30;47.70;;;;;;5054767;28;20032;-64
2021/06/26 10:00:43;;;;;;;7.07;4.38;;;31.20;48.60;;;;;;5048503;28;20512;-64
2021/06/26 10:03:10;;;;;;;8.18;4.95;;;32.20;47.90;;;;;;5057087;28;20033;-64
2021/06/26 10:05:37;;;;;;;8.30;5.03;;;32.80;46.20;;;;;;5062191;28;20374;-64
2021/06/26 10:08:05;;;;;;;5.97;4.25;;;33.10;47.00;;;;;;5067853;28;20028;-64
2021/06/26 10:10:31;;;;;;;4.15;3.75;;;33.30;43.60;;;;;;5052619;28;20496;-63
2021/06/26 10:12:57;;;;;;;7.25;4.68;;;33.50;46.70;;;;;;5067594;28;20538;-63
2021/06/26 10:15:25;;;;;;;6.43;4.93;;;32.40;45.90;;;;;;5061353;28;20359;-64
2021/06/26 10:17:51;;;;;;;5.72;3.95;;;31.30;46.50;;;;;;5062127;28;20017;-62
2021/06/26 10:20:19;;;;;;;6.93;3.92;;;31.50;47.50;;;;;;5058171;28;20051;-62
2021/06/26 10:22:48;;;;;;;5.70;4.70;;;31.60;45.60;;;;;;5058568;28;20103;-63
2021/06/26 10:25:15;;;;;;;8.90;5.07;;;30.90;47.60;;;;;;5055337;28;20082;-63
2021/06/26 10:27:42;;;;;;;8.20;4.68;;;30.20;48.80;;;;;;5059533;28;20111;-63
2021/06/26 10:30:11;;;;;;;10.25;4.70;;;30.10;51.30;;;;;;5064344;28;20401;-63
2021/06/26 10:32:37;;;;;;;17.70;5.32;;;29.70;49.90;;;;;;5062473;28;20036;-63
2021/06/26 10:35:12;;;;;;;8.45;5.60;;;29.00;52.10;;;;;;5064387;28;20036;-64
2021/06/26 10:37:38;;;;;;;11.48;4.97;;;28.70;52.60;;;;;;5070973;28;20382;-63
2021/06/26 10:40:07;;;;;;;9.45;5.30;;;29.00;51.50;;;;;;5064716;28;20059;-62
2021/06/26 10:42:35;;;;;;;10.38;5.38;;;28.80;54.80;;;;;;5061548;28;20138;-63
2021/06/26 10:45:04;;;;;;;6.53;4.75;;;28.60;51.50;;;;;;5067845;28;20502;-63
2021/06/26 10:47:34;;;;;;;7.47;4.97;;;28.20;52.40;;;;;;5058105;28;20037;-64
2021/06/26 10:50:16;;;;;;;9.13;5.55;;;28.70;52.40;;;;;;5059531;28;20029;-64
2021/06/26 10:52:53;;;;;;;8.20;5.30;;;28.40;53.40;;;;;;5063827;28;20100;-64
2021/06/26 10:55:33;;;;;;;5.78;4.63;;;28.90;50.00;;;;;;5065630;28;20271;-63
2021/06/26 10:58:00;;;;;;;8.25;4.43;;;28.90;53.50;;;;;;5058339;28;20474;-64
2021/06/26 11:00:44;;;;;;;5.47;4.22;;;28.90;51.00;;;;;;5062431;28;20506;-64
2021/06/26 11:03:20;;;;;;;10.10;5.43;;;28.90;50.50;;;;;;5063787;28;20029;-63
2021/06/26 11:05:46;;;;;;;7.03;4.15;;;29.10;49.00;;;;;;5062463;28;20017;-65
2021/06/26 11:08:20;;;;;;;5.07;4.53;;;29.00;51.00;;;;;;5062070;28;20866;-64
2021/06/26 11:10:56;;;;;;;9.88;4.65;;;29.40;50.60;;;;;;5065932;28;20036;-64
2021/06/26 11:13:24;;;;;;;8.60;5.15;;;29.90;49.80;;;;;;5068957;28;20647;-63
2021/06/26 11:15:50;;;;;;;10.10;4.78;;;29.80;48.60;;;;;;5063476;28;20028;-64
2021/06/26 11:18:17;;;;;;;7.03;4.78;;;30.00;49.00;;;;;;5066867;28;20086;-63
2021/06/26 11:20:43;;;;;;;9.13;4.93;;;30.00;49.30;;;;;;5065924;28;20493;-65
2021/06/26 11:23:15;;;;;;;8.63;4.30;;;29.60;48.10;;;;;;5068965;28;20028;-64
2021/06/26 11:25:41;;;;;;;13.52;4.28;;;29.70;50.20;;;;;;5062089;28;20078;-64
2021/06/26 11:28:12;;;;;;;7.65;4.38;;;30.20;49.90;;;;;;5065866;28;20033;-63
2021/06/26 11:30:40;;;;;;;4.95;3.90;;;30.10;49.10;;;;;;5056580;28;20468;-65
2021/06/26 11:33:06;;;;;;;5.38;4.13;;;30.10;51.60;;;;;;5059855;28;20024;-65
2021/06/26 11:35:39;;;;;;;7.03;4.45;;;29.80;50.40;;;;;;5072143;28;20420;-64
2021/06/26 11:38:14;;;;;;;15.02;5.07;;;29.90;51.40;;;;;;5059828;28;20439;-62
2021/06/26 11:40:40;;;;;;;10.35;4.15;;;29.50;49.80;;;;;;5062016;28;20064;-64
2021/06/26 11:43:06;;;;;;;4.78;3.92;;;29.40;52.00;;;;;;5058822;28;20032;-64
2021/06/26 11:45:41;;;;;;;4.82;4.05;;;29.20;50.90;;;;;;5059757;28;20030;-64
2021/06/26 11:48:09;;;;;;;3.90;3.60;;;29.10;51.40;;;;;;5057911;28;20039;-64
2021/06/26 11:50:37;;;;;;;4.88;3.83;;;29.30;51.50;;;;;;5061338;28;20493;-64
2021/06/26 11:53:11;;;;;;;3.63;3.28;;;29.30;50.00;;;;;;5054445;28;20064;-64
2021/06/26 11:56:10;;;;;;;4.43;3.92;;;29.50;50.70;;;;;;5059664;28;20028;-64
2021/06/26 11:58:49;;;;;;;5.68;3.90;;;29.50;50.80;;;;;;5059862;28;20044;-65
2021/06/26 12:01:31;;;;;;;6.40;4.35;;;29.30;51.90;;;;;;5062649;28;20397;-64
2021/06/26 12:03:58;;;;;;;9.05;3.60;;;29.30;51.20;;;;;;5057350;28;20024;-63
2021/06/26 12:06:24;;;;;;;6.18;3.00;;;29.10;51.00;;;;;;5057968;28;20037;-63
2021/06/26 12:08:54;;;;;;;9.20;3.90;;;28.90;54.20;;;;;;5058310;28;20028;-65
2021/06/26 12:11:21;;;;;;;4.38;3.65;;;28.90;52.30;;;;;;5056699;28;20119;-63
2021/06/26 12:13:52;;;;;;;4.95;3.92;;;28.60;51.60;;;;;;5063577;28;20134;-63
2021/06/26 12:16:26;;;;;;;12.30;4.35;;;28.70;51.60;;;;;;5063304;28;20095;-64
2021/06/26 12:18:57;;;;;;;6.05;3.60;;;28.40;51.10;;;;;;5063637;28;20032;-62
2021/06/26 12:21:38;;;;;;;5.75;3.90;;;28.50;51.10;;;;;;5059375;28;20032;-63
2021/06/26 12:24:04;;;;;;;4.45;4.03;;;28.40;51.30;;;;;;5060940;28;20091;-64
2021/06/26 12:26:30;;;;;;;5.50;3.80;;;28.20;50.90;;;;;;5058513;28;20151;-64
2021/06/26 12:28:55;;;;;;;6.25;3.38;;;28.10;52.70;;;;;;5063992;28;20474;-63
2021/06/26 12:31:22;;;;;;;3.47;2.83;;;28.10;53.10;;;;;;5064129;28;20125;-63
2021/06/26 12:34:02;;;;;;;6.82;4.15;;;27.90;53.40;;;;;;5063070;28;20510;-64